Campanya meteocatpedra

Dades EMA Lac Redon (2.247 m)

?
?
Resum diari
Dades diàries de l'estació meteorològica
Temperatura mitjana 11.3 °C
Temperatura màxima 13.1 °C 14:00 TU
Temperatura mínima 8.0 °C 1:57 TU
Humitat relativa mitjana 97%
Precipitació acumulada 77.4 mm
Gruix de neu màxim 0 cm
Ratxa màxima del vent (10 m) 46.8 km/h - 3º 4:45 TU
Irradiació solar global 4.9 MJ/m2

El tram horari està expressat en Temps Universal (TU). Cal sumar una hora en horari d'hivern i dues en horari d'estiu per passar a l'hora oficial.

Lac Redon (2.247 m)

Metadades estació meteorol´gica
Municipi Vielha e Mijaran
Comarca Val d'Aran
Altitud 2247 m
Data alta 15.07.1999
Estat actual Operativa
Dades de període
Període
TU
TM
°C
TX
°C
TN
°C
HRM
%
PPT
mm
GN
cm
VVM (10 m)
km/h
DVM (10 m)
graus
VVX (10 m)
km/h
PM
hPa
RS
W/m2
00:00 - 00:30 9.9 10.5 9.0 90 4.0 0 21.6 45 40.7 856.5 0
00:30 - 01:00 10.8 12.2 9.8 82 3.0 0 19.1 29 31.3 855.8 0
01:00 - 01:30 9.8 10.1 9.3 94 8.2 0 14.8 26 28.1 856.2 0
01:30 - 02:00 9.3 9.8 8.0 96 26.8 0 22.0 11 38.5 855.8 0
02:00 - 02:30 8.8 9.4 8.1 95 3.7 0 20.9 37 36.0 855.6 0
02:30 - 03:00 9.0 9.2 8.6 95 3.7 0 19.4 26 41.4 856.0 0
03:00 - 03:30 8.5 9.0 8.2 98 2.9 0 19.8 34 40.0 856.1 0
03:30 - 04:00 9.3 10.2 8.7 94 3.9 0 23.8 36 44.6 855.8 0
04:00 - 04:30 9.3 10.1 8.5 91 7.2 0 11.2 18 26.6 855.8 0
04:30 - 05:00 9.5 11.0 8.3 89 0.3 0 20.9 43 46.8 855.5 1
05:00 - 05:30 9.8 11.0 9.4 88 1.7 0 19.1 21 34.2 855.7 1
05:30 - 06:00 10.7 11.5 10.0 84 5.7 0 14.8 52 33.8 855.7 3
06:00 - 06:30 10.4 11.9 9.3 89 0.0 0 7.6 86 19.8 856.0 25
06:30 - 07:00 10.8 11.4 10.4 90 0.7 0 4.0 255 14.8 856.2 59
07:00 - 07:30 10.8 11.6 10.4 96 5.1 0 10.1 189 36.7 856.4 43
07:30 - 08:00 11.2 11.3 10.9 98 0.5 0 5.8 194 14.0 856.4 125
08:00 - 08:30 10.9 11.1 10.8 99 0.0 0 10.1 194 18.7 856.6 80
08:30 - 09:00 10.9 11.0 10.8 99 0.0 0 11.2 194 15.1 856.7 63
09:00 - 09:30 11.1 11.3 10.9 99 0.0 0 12.2 192 19.1 856.7 64
09:30 - 10:00 11.2 11.6 10.8 99 0.0 0 14.4 197 24.8 856.8 146
10:00 - 10:30 11.5 11.6 11.4 99 0.0 0 16.6 192 25.6 856.8 130
10:30 - 11:00 11.7 12.1 11.5 99 0.0 0 18.7 193 24.1 856.7 195
11:00 - 11:30 11.9 12.0 11.8 99 0.0 0 20.5 199 28.4 856.5 173
11:30 - 12:00 11.9 12.2 11.7 99 0.0 0 25.2 206 33.1 856.4 168
12:00 - 12:30 12.1 12.5 11.9 99 0.0 0 28.4 203 35.3 856.1 151
12:30 - 13:00 12.4 12.7 12.3 99 0.0 0 30.6 200 40.7 856.0 133
13:00 - 13:30 12.6 12.8 12.5 99 0.0 0 32.0 205 41.4 856.0 165
13:30 - 14:00 12.6 13.0 12.3 100 0.0 0 29.9 199 38.5 856.1 211
14:00 - 14:30 12.8 13.1 12.6 100 0.0 0 32.4 202 42.1 855.9 157
14:30 - 15:00 12.8 13.0 12.6 100 0.0 0 30.6 199 42.5 855.9 134
15:00 - 15:30 12.7 12.9 12.5 100 0.0 0 30.6 205 42.1 855.9 138
15:30 - 16:00 12.5 12.8 12.4 100 0.0 0 30.6 207 42.1 856.0 94
16:00 - 16:30 12.7 12.8 12.5 100 0.0 0 25.2 205 37.1 855.9 82
16:30 - 17:00 12.4 12.6 12.3 100 0.0 0 19.4 207 28.8 856.0 49
17:00 - 17:30 12.3 12.4 12.3 100 0.0 0 15.5 207 25.9 856.0 57
17:30 - 18:00 12.4 12.5 12.3 100 0.0 0 19.1 201 25.9 855.9 48
18:00 - 18:30 12.2 12.3 12.0 100 0.0 0 14.0 200 18.0 856.0 25
18:30 - 19:00 12.0 12.0 11.9 100 0.0 0 3.6 216 12.2 856.1 12
19:00 - 19:30 11.8 11.9 11.6 100 0.0 0 1.8 220 10.4 856.2 1
19:30 - 20:00 12.0 12.2 11.9 100 0.0 0 10.4 194 18.4 856.1 0
20:00 - 20:30 12.1 12.2 12.1 100 0.0 0 15.8 199 22.0 856.1 0
20:30 - 21:00 12.1 12.2 12.1 100 0.0 0 16.6 201 22.7 856.2 0
21:00 - 21:30 12.3 12.4 12.2 100 0.0 0 21.6 202 27.4 856.2 0
21:30 - 22:00 12.3 12.4 12.1 100 0.0 0 16.9 188 28.4 856.3 0
22:00 - 22:30 11.8 12.2 11.3 100 0.0 0 7.9 177 17.6 856.3 0
22:30 - 23:00 11.1 11.2 10.9 100 0.0 0 7.2 191 14.4 856.2 0
23:00 - 23:30 11.1 11.2 10.9 100 0.0 0 5.8 179 11.2 856.2 0
23:30 - 00:00 11.0 11.2 10.9 100 0.0 0 3.6 189 16.2 856.0 0

Les dades en taronja només han passat un control de qualitat automàtic. Resta pendent la seva validació definitiva.